sensor_id;sensor_type;location;lat;lon;timestamp;pressure;altitude;pressure_sealevel;temperature;humidity
61345;BME280;47216;42.656;23.232;2022-12-24T00:01:34;93759.78;;;2.84;82.11
61345;BME280;47216;42.656;23.232;2022-12-24T00:04:01;93762.97;;;2.86;82.01
61345;BME280;47216;42.656;23.232;2022-12-24T00:06:27;93763.75;;;2.86;82.29
61345;BME280;47216;42.656;23.232;2022-12-24T00:08:54;93753.44;;;2.86;81.80
61345;BME280;47216;42.656;23.232;2022-12-24T00:11:20;93758.81;;;2.85;82.39
61345;BME280;47216;42.656;23.232;2022-12-24T00:13:47;93758.03;;;2.84;81.92
61345;BME280;47216;42.656;23.232;2022-12-24T00:16:14;93768.13;;;2.72;81.21
61345;BME280;47216;42.656;23.232;2022-12-24T00:18:42;93770.94;;;2.64;82.11
61345;BME280;47216;42.656;23.232;2022-12-24T00:21:08;93774.47;;;2.63;81.76
61345;BME280;47216;42.656;23.232;2022-12-24T00:23:35;93768.53;;;2.63;81.36
61345;BME280;47216;42.656;23.232;2022-12-24T00:26:01;93776.06;;;2.58;82.25
61345;BME280;47216;42.656;23.232;2022-12-24T00:28:28;93765.38;;;2.61;81.04
61345;BME280;47216;42.656;23.232;2022-12-24T00:30:55;93761.44;;;2.51;81.96
61345;BME280;47216;42.656;23.232;2022-12-24T00:33:21;93759.66;;;2.45;81.85
61345;BME280;47216;42.656;23.232;2022-12-24T00:35:50;93759.06;;;2.43;81.45
61345;BME280;47216;42.656;23.232;2022-12-24T00:38:17;93759.84;;;2.30;81.33
61345;BME280;47216;42.656;23.232;2022-12-24T00:40:43;93767.38;;;2.25;82.12
61345;BME280;47216;42.656;23.232;2022-12-24T00:43:10;93764.03;;;2.18;81.99
61345;BME280;47216;42.656;23.232;2022-12-24T00:45:37;93759.84;;;2.17;82.26
61345;BME280;47216;42.656;23.232;2022-12-24T00:48:03;93757.50;;;2.16;83.48
61345;BME280;47216;42.656;23.232;2022-12-24T00:50:30;93763.81;;;2.13;83.13
61345;BME280;47216;42.656;23.232;2022-12-24T00:52:58;93771.34;;;2.08;83.43
61345;BME280;47216;42.656;23.232;2022-12-24T00:55:24;93761.84;;;2.08;82.93
61345;BME280;47216;42.656;23.232;2022-12-24T00:57:51;93773.91;;;2.15;82.21
61345;BME280;47216;42.656;23.232;2022-12-24T01:00:18;93771.31;;;2.15;82.72
61345;BME280;47216;42.656;23.232;2022-12-24T01:02:44;93771.34;;;2.08;83.50
61345;BME280;47216;42.656;23.232;2022-12-24T01:05:11;93774.13;;;2.13;82.75
61345;BME280;47216;42.656;23.232;2022-12-24T01:07:38;93775.69;;;2.14;82.60
61345;BME280;47216;42.656;23.232;2022-12-24T01:10:06;93770.34;;;2.16;82.79
61345;BME280;47216;42.656;23.232;2022-12-24T01:12:33;93779.63;;;2.17;82.85
61345;BME280;47216;42.656;23.232;2022-12-24T01:15:00;93780.03;;;2.14;83.81
61345;BME280;47216;42.656;23.232;2022-12-24T01:17:26;93791.50;;;2.04;83.22
61345;BME280;47216;42.656;23.232;2022-12-24T01:19:53;93781.41;;;1.96;83.31
61345;BME280;47216;42.656;23.232;2022-12-24T01:22:19;93772.31;;;2.00;83.53
61345;BME280;47216;42.656;23.232;2022-12-24T01:24:46;93764.59;;;2.00;82.75
61345;BME280;47216;42.656;23.232;2022-12-24T01:27:14;93766.56;;;1.92;83.49
61345;BME280;47216;42.656;23.232;2022-12-24T01:29:40;93756.66;;;1.82;83.51
61345;BME280;47216;42.656;23.232;2022-12-24T01:32:07;93765.38;;;1.81;83.04
61345;BME280;47216;42.656;23.232;2022-12-24T01:34:33;93771.88;;;1.77;83.15
61345;BME280;47216;42.656;23.232;2022-12-24T01:37:00;93762.97;;;1.73;83.39
61345;BME280;47216;42.656;23.232;2022-12-24T01:39:27;93769.47;;;1.68;83.10
61345;BME280;47216;42.656;23.232;2022-12-24T01:41:53;93766.91;;;1.68;82.40
61345;BME280;47216;42.656;23.232;2022-12-24T01:44:40;93766.50;;;1.58;83.52
61345;BME280;47216;42.656;23.232;2022-12-24T01:47:07;93762.72;;;1.54;83.21
61345;BME280;47216;42.656;23.232;2022-12-24T01:49:36;93762.53;;;1.56;83.75
61345;BME280;47216;42.656;23.232;2022-12-24T01:52:04;93749.28;;;1.52;83.76
61345;BME280;47216;42.656;23.232;2022-12-24T01:54:33;93768.66;;;1.55;83.32
61345;BME280;47216;42.656;23.232;2022-12-24T01:57:01;93769.63;;;1.47;83.82
61345;BME280;47216;42.656;23.232;2022-12-24T01:59:29;93765.84;;;1.43;83.63
61345;BME280;47216;42.656;23.232;2022-12-24T02:01:59;93760.94;;;1.48;83.83
61345;BME280;47216;42.656;23.232;2022-12-24T02:04:28;93761.94;;;1.54;83.86
61345;BME280;47216;42.656;23.232;2022-12-24T02:06:57;93752.28;;;1.62;83.84
61345;BME280;47216;42.656;23.232;2022-12-24T02:09:23;93751.66;;;1.54;84.10
61345;BME280;47216;42.656;23.232;2022-12-24T02:11:50;93754.63;;;1.51;83.92
61345;BME280;47216;42.656;23.232;2022-12-24T02:14:17;93752.25;;;1.49;83.85
61345;BME280;47216;42.656;23.232;2022-12-24T02:16:45;93761.53;;;1.43;84.26
61345;BME280;47216;42.656;23.232;2022-12-24T02:22:00;93765.28;;;1.47;84.18
61345;BME280;47216;42.656;23.232;2022-12-24T02:27:24;93772.59;;;1.44;84.36
61345;BME280;47216;42.656;23.232;2022-12-24T02:30:06;93768.81;;;1.40;84.29
61345;BME280;47216;42.656;23.232;2022-12-24T02:32:35;93768.00;;;1.33;84.50
61345;BME280;47216;42.656;23.232;2022-12-24T02:35:04;93764.25;;;1.35;84.18
61345;BME280;47216;42.656;23.232;2022-12-24T02:37:35;93768.41;;;1.30;84.38
61345;BME280;47216;42.656;23.232;2022-12-24T02:40:03;93755.31;;;1.24;84.19
61345;BME280;47216;42.656;23.232;2022-12-24T02:42:34;93755.31;;;1.24;84.44
61345;BME280;47216;42.656;23.232;2022-12-24T02:45:03;93742.91;;;1.28;84.13
61345;BME280;47216;42.656;23.232;2022-12-24T02:47:33;93741.31;;;1.20;84.06
61345;BME280;47216;42.656;23.232;2022-12-24T02:50:00;93740.69;;;1.18;84.45
61345;BME280;47216;42.656;23.232;2022-12-24T02:52:28;93735.56;;;1.18;84.23
61345;BME280;47216;42.656;23.232;2022-12-24T02:54:54;93735.34;;;1.20;85.39
61345;BME280;47216;42.656;23.232;2022-12-24T02:57:22;93742.13;;;1.28;84.94
61345;BME280;47216;42.656;23.232;2022-12-24T02:59:57;93739.31;;;1.22;84.86
61345;BME280;47216;42.656;23.232;2022-12-24T03:02:25;93740.69;;;1.18;84.59
61345;BME280;47216;42.656;23.232;2022-12-24T03:04:58;93742.66;;;1.16;84.48
61345;BME280;47216;42.656;23.232;2022-12-24T03:07:28;93737.53;;;1.16;84.37
61345;BME280;47216;42.656;23.232;2022-12-24T03:10:03;93740.31;;;1.21;84.04
61345;BME280;47216;42.656;23.232;2022-12-24T03:12:33;93736.97;;;1.28;84.35
61345;BME280;47216;42.656;23.232;2022-12-24T03:15:04;93742.47;;;1.24;84.85
61345;BME280;47216;42.656;23.232;2022-12-24T03:17:33;93744.63;;;1.14;84.63
61345;BME280;47216;42.656;23.232;2022-12-24T03:20:01;93737.31;;;1.11;84.68
61345;BME280;47216;42.656;23.232;2022-12-24T03:22:28;93740.25;;;1.08;84.31
61345;BME280;47216;42.656;23.232;2022-12-24T03:24:56;93742.59;;;1.03;84.60
61345;BME280;47216;42.656;23.232;2022-12-24T03:27:24;93738.22;;;0.90;85.74
61345;BME280;47216;42.656;23.232;2022-12-24T03:29:51;93737.41;;;0.90;85.95
61345;BME280;47216;42.656;23.232;2022-12-24T03:32:21;93742.16;;;0.93;85.16
61345;BME280;47216;42.656;23.232;2022-12-24T03:34:48;93730.72;;;0.95;85.32
61345;BME280;47216;42.656;23.232;2022-12-24T03:37:16;93730.13;;;0.93;85.48
61345;BME280;47216;42.656;23.232;2022-12-24T03:39:42;93738.81;;;0.99;85.41
61345;BME280;47216;42.656;23.232;2022-12-24T03:42:09;93746.34;;;1.00;85.36
61345;BME280;47216;42.656;23.232;2022-12-24T03:44:35;93747.91;;;0.95;85.20
61345;BME280;47216;42.656;23.232;2022-12-24T03:47:02;93751.66;;;0.99;85.05
61345;BME280;47216;42.656;23.232;2022-12-24T03:49:29;93751.66;;;0.99;84.86
61345;BME280;47216;42.656;23.232;2022-12-24T03:51:55;93752.84;;;0.96;84.79
61345;BME280;47216;42.656;23.232;2022-12-24T03:54:23;93754.63;;;0.96;85.00
61345;BME280;47216;42.656;23.232;2022-12-24T03:56:50;93746.50;;;0.92;84.72
61345;BME280;47216;42.656;23.232;2022-12-24T03:59:16;93752.88;;;1.03;84.64
61345;BME280;47216;42.656;23.232;2022-12-24T04:01:43;93754.03;;;1.00;84.79
61345;BME280;47216;42.656;23.232;2022-12-24T04:04:09;93753.78;;;0.89;84.91
61345;BME280;47216;42.656;23.232;2022-12-24T04:06:36;93764.88;;;0.96;84.63
61345;BME280;47216;42.656;23.232;2022-12-24T04:09:02;93771.94;;;0.87;85.33
61345;BME280;47216;42.656;23.232;2022-12-24T04:11:31;93773.00;;;0.99;84.93
61345;BME280;47216;42.656;23.232;2022-12-24T04:13:58;93781.19;;;0.81;85.07
61345;BME280;47216;42.656;23.232;2022-12-24T04:16:24;93776.03;;;0.75;85.60
61345;BME280;47216;42.656;23.232;2022-12-24T04:18:51;93780.00;;;0.77;85.99
61345;BME280;47216;42.656;23.232;2022-12-24T04:21:18;93770.72;;;0.76;86.03
61345;BME280;47216;42.656;23.232;2022-12-24T04:23:44;93776.09;;;0.88;85.73
61345;BME280;47216;42.656;23.232;2022-12-24T04:26:12;93774.09;;;0.83;85.44
61345;BME280;47216;42.656;23.232;2022-12-24T04:28:40;93781.47;;;0.93;85.28
61345;BME280;47216;42.656;23.232;2022-12-24T04:31:08;93781.03;;;0.90;85.35
61345;BME280;47216;42.656;23.232;2022-12-24T04:33:36;93794.03;;;0.81;85.32
61345;BME280;47216;42.656;23.232;2022-12-24T04:36:03;93791.47;;;0.81;85.27
61345;BME280;47216;42.656;23.232;2022-12-24T04:38:30;93798.56;;;0.79;85.07
61345;BME280;47216;42.656;23.232;2022-12-24T04:40:57;93800.28;;;0.72;85.49
61345;BME280;47216;42.656;23.232;2022-12-24T04:43:24;93789.03;;;0.73;85.41
61345;BME280;47216;42.656;23.232;2022-12-24T04:45:52;93788.81;;;0.68;85.80
61345;BME280;47216;42.656;23.232;2022-12-24T04:48:19;93788.59;;;0.63;85.63
61345;BME280;47216;42.656;23.232;2022-12-24T04:50:46;93793.75;;;0.70;85.62
61345;BME280;47216;42.656;23.232;2022-12-24T04:53:12;93778.50;;;0.61;85.62
61345;BME280;47216;42.656;23.232;2022-12-24T04:55:42;93779.53;;;0.67;85.80
61345;BME280;47216;42.656;23.232;2022-12-24T04:58:09;93781.50;;;0.65;85.66
61345;BME280;47216;42.656;23.232;2022-12-24T05:00:35;93774.63;;;0.72;85.61
61345;BME280;47216;42.656;23.232;2022-12-24T05:03:03;93769.28;;;0.74;85.27
61345;BME280;47216;42.656;23.232;2022-12-24T05:05:29;93765.75;;;0.75;85.24
61345;BME280;47216;42.656;23.232;2022-12-24T05:07:56;93761.28;;;0.83;85.12
61345;BME280;47216;42.656;23.232;2022-12-24T05:10:22;93762.25;;;0.82;85.49
61345;BME280;47216;42.656;23.232;2022-12-24T05:12:49;93753.31;;;0.78;85.71
61345;BME280;47216;42.656;23.232;2022-12-24T05:15:16;93745.63;;;0.78;86.02
61345;BME280;47216;42.656;23.232;2022-12-24T05:17:42;93744.06;;;0.77;86.25
61345;BME280;47216;42.656;23.232;2022-12-24T05:20:10;93747.63;;;0.76;86.30
61345;BME280;47216;42.656;23.232;2022-12-24T05:22:37;93754.72;;;0.74;85.97
61345;BME280;47216;42.656;23.232;2022-12-24T05:25:20;93755.09;;;0.78;86.57
61345;BME280;47216;42.656;23.232;2022-12-24T05:28:04;93763.41;;;0.80;86.45
61345;BME280;47216;42.656;23.232;2022-12-24T05:30:31;93767.81;;;0.86;86.54
61345;BME280;47216;42.656;23.232;2022-12-24T05:32:58;93772.97;;;0.93;86.28
61345;BME280;47216;42.656;23.232;2022-12-24T05:35:26;93779.69;;;0.94;86.62
61345;BME280;47216;42.656;23.232;2022-12-24T05:37:56;93774.31;;;0.89;86.20
61345;BME280;47216;42.656;23.232;2022-12-24T05:40:22;93770.66;;;1.04;86.50
61345;BME280;47216;42.656;23.232;2022-12-24T05:42:49;93771.84;;;1.02;86.38
61345;BME280;47216;42.656;23.232;2022-12-24T05:45:15;93768.69;;;1.13;86.21
61345;BME280;47216;42.656;23.232;2022-12-24T05:47:42;93769.47;;;1.07;86.33
61345;BME280;47216;42.656;23.232;2022-12-24T05:50:09;93749.09;;;0.99;86.59
61345;BME280;47216;42.656;23.232;2022-12-24T05:52:37;93750.47;;;0.95;86.73
61345;BME280;47216;42.656;23.232;2022-12-24T05:55:04;93745.56;;;1.00;86.78
61345;BME280;47216;42.656;23.232;2022-12-24T05:57:31;93744.19;;;1.04;86.58
61345;BME280;47216;42.656;23.232;2022-12-24T05:59:58;93745.38;;;1.08;86.78
61345;BME280;47216;42.656;23.232;2022-12-24T06:02:24;93753.28;;;1.07;87.32
61345;BME280;47216;42.656;23.232;2022-12-24T06:04:50;93754.88;;;1.08;87.50
61345;BME280;47216;42.656;23.232;2022-12-24T06:07:17;93774.22;;;1.10;87.51
61345;BME280;47216;42.656;23.232;2022-12-24T06:09:45;93755.94;;;1.33;87.36
61345;BME280;47216;42.656;23.232;2022-12-24T06:12:11;93756.63;;;1.68;87.97
61345;BME280;47216;42.656;23.232;2022-12-24T06:14:38;93763.59;;;1.81;86.15
61345;BME280;47216;42.656;23.232;2022-12-24T06:17:04;93762.97;;;1.73;86.95
61345;BME280;47216;42.656;23.232;2022-12-24T06:19:31;93776.78;;;1.58;87.09
61345;BME280;47216;42.656;23.232;2022-12-24T06:21:58;93767.66;;;1.49;86.73
61345;BME280;47216;42.656;23.232;2022-12-24T06:24:24;93779.31;;;1.52;86.76
61345;BME280;47216;42.656;23.232;2022-12-24T06:26:52;93775.16;;;1.44;87.32
61345;BME280;47216;42.656;23.232;2022-12-24T06:29:18;93772.78;;;1.49;87.17
61345;BME280;47216;42.656;23.232;2022-12-24T06:31:45;93778.38;;;1.66;87.39
61345;BME280;47216;42.656;23.232;2022-12-24T06:34:12;93779.53;;;1.57;87.56
61345;BME280;47216;42.656;23.232;2022-12-24T06:36:38;93784.66;;;1.57;87.34
61345;BME280;47216;42.656;23.232;2022-12-24T06:39:05;93781.09;;;1.51;87.31
61345;BME280;47216;42.656;23.232;2022-12-24T06:41:31;93781.28;;;1.50;86.98
61345;BME280;47216;42.656;23.232;2022-12-24T06:43:59;93785.44;;;1.44;87.31
61345;BME280;47216;42.656;23.232;2022-12-24T06:46:26;93795.72;;;1.44;87.77
61345;BME280;47216;42.656;23.232;2022-12-24T06:48:52;93795.53;;;1.52;87.89
61345;BME280;47216;42.656;23.232;2022-12-24T06:51:20;93795.34;;;1.54;87.84
61345;BME280;47216;42.656;23.232;2022-12-24T06:53:46;93795.16;;;1.55;87.87
61345;BME280;47216;42.656;23.232;2022-12-24T06:56:14;93797.50;;;1.57;87.97
61345;BME280;47216;42.656;23.232;2022-12-24T06:58:41;93792.81;;;1.60;88.26
61345;BME280;47216;42.656;23.232;2022-12-24T07:01:10;93790.63;;;1.71;88.23
61345;BME280;47216;42.656;23.232;2022-12-24T07:03:36;93792.28;;;1.85;88.28
61345;BME280;47216;42.656;23.232;2022-12-24T07:06:03;93790.50;;;1.92;88.45
61345;BME280;47216;42.656;23.232;2022-12-24T07:08:30;93791.09;;;1.94;88.01
61345;BME280;47216;42.656;23.232;2022-12-24T07:10:58;93793.88;;;1.99;88.80
61345;BME280;47216;42.656;23.232;2022-12-24T07:13:25;93795.88;;;2.10;88.23
61345;BME280;47216;42.656;23.232;2022-12-24T07:15:55;93797.06;;;2.08;88.38
61345;BME280;47216;42.656;23.232;2022-12-24T07:18:23;93799.00;;;2.13;88.50
61345;BME280;47216;42.656;23.232;2022-12-24T07:20:50;93798.66;;;2.16;88.12
61345;BME280;47216;42.656;23.232;2022-12-24T07:23:16;93798.66;;;2.22;88.07
61345;BME280;47216;42.656;23.232;2022-12-24T07:25:43;93786.00;;;2.34;87.95
61345;BME280;47216;42.656;23.232;2022-12-24T07:28:10;93790.94;;;2.42;88.67
61345;BME280;47216;42.656;23.232;2022-12-24T07:30:36;93800.25;;;2.50;88.99
61345;BME280;47216;42.656;23.232;2022-12-24T07:33:03;93798.06;;;2.60;87.70
61345;BME280;47216;42.656;23.232;2022-12-24T07:35:31;93798.03;;;2.67;87.86
61345;BME280;47216;42.656;23.232;2022-12-24T07:37:57;93806.97;;;2.71;88.41
61345;BME280;47216;42.656;23.232;2022-12-24T07:40:24;93808.94;;;2.76;88.12
61345;BME280;47216;42.656;23.232;2022-12-24T07:42:50;93799.59;;;2.81;87.50
61345;BME280;47216;42.656;23.232;2022-12-24T07:45:17;93806.13;;;2.90;87.02
61345;BME280;47216;42.656;23.232;2022-12-24T07:47:43;93801.75;;;2.98;87.99
61345;BME280;47216;42.656;23.232;2022-12-24T07:50:10;93804.53;;;3.03;88.27
61345;BME280;47216;42.656;23.232;2022-12-24T07:52:38;93805.69;;;3.13;87.20
61345;BME280;47216;42.656;23.232;2022-12-24T07:55:05;93810.97;;;3.39;87.48
61345;BME280;47216;42.656;23.232;2022-12-24T07:57:31;93818.69;;;3.39;86.57
61345;BME280;47216;42.656;23.232;2022-12-24T07:59:58;93818.25;;;3.55;86.56
61345;BME280;47216;42.656;23.232;2022-12-24T08:02:24;93824.78;;;3.57;87.03
61345;BME280;47216;42.656;23.232;2022-12-24T08:04:51;93820.00;;;3.68;86.31
61345;BME280;47216;42.656;23.232;2022-12-24T08:07:17;93833.88;;;3.60;86.39
61345;BME280;47216;42.656;23.232;2022-12-24T08:09:45;93841.03;;;3.58;86.02
61345;BME280;47216;42.656;23.232;2022-12-24T08:12:12;93846.38;;;3.63;86.04
61345;BME280;47216;42.656;23.232;2022-12-24T08:14:38;93839.63;;;3.62;85.00
61345;BME280;47216;42.656;23.232;2022-12-24T08:17:05;93836.47;;;3.60;84.92
61345;BME280;47216;42.656;23.232;2022-12-24T08:19:31;93835.66;;;3.66;86.03
61345;BME280;47216;42.656;23.232;2022-12-24T08:21:58;93830.44;;;3.79;85.24
61345;BME280;47216;42.656;23.232;2022-12-24T08:24:24;93827.09;;;3.72;84.66
61345;BME280;47216;42.656;23.232;2022-12-24T08:26:52;93831.66;;;3.77;84.62
61345;BME280;47216;42.656;23.232;2022-12-24T08:29:19;93827.03;;;3.86;84.94
61345;BME280;47216;42.656;23.232;2022-12-24T08:31:45;93822.47;;;3.88;84.10
61345;BME280;47216;42.656;23.232;2022-12-24T08:34:12;93819.25;;;3.92;84.11
61345;BME280;47216;42.656;23.232;2022-12-24T08:36:38;93812.97;;;3.82;84.25
61345;BME280;47216;42.656;23.232;2022-12-24T08:39:05;93811.00;;;3.84;84.47
61345;BME280;47216;42.656;23.232;2022-12-24T08:41:33;93814.56;;;3.83;83.67
61345;BME280;47216;42.656;23.232;2022-12-24T08:44:04;93814.97;;;3.79;84.60
61345;BME280;47216;42.656;23.232;2022-12-24T08:46:30;93814.34;;;3.84;84.81
61345;BME280;47216;42.656;23.232;2022-12-24T08:48:57;93827.22;;;3.91;84.08
61345;BME280;47216;42.656;23.232;2022-12-24T08:51:23;93836.72;;;3.90;85.03
61345;BME280;47216;42.656;23.232;2022-12-24T08:53:50;93844.84;;;3.94;84.43
61345;BME280;47216;42.656;23.232;2022-12-24T08:56:16;93851.03;;;3.93;84.76
61345;BME280;47216;42.656;23.232;2022-12-24T08:58:43;93854.59;;;3.92;85.79
61345;BME280;47216;42.656;23.232;2022-12-24T09:01:12;93848.03;;;3.96;85.12
61345;BME280;47216;42.656;23.232;2022-12-24T09:03:39;93842.59;;;4.04;84.86
61345;BME280;47216;42.656;23.232;2022-12-24T09:06:06;93835.72;;;4.30;84.54
61345;BME280;47216;42.656;23.232;2022-12-24T09:08:33;93825.88;;;4.45;83.48
61345;BME280;47216;42.656;23.232;2022-12-24T09:11:04;93820.88;;;4.50;82.85
61345;BME280;47216;42.656;23.232;2022-12-24T09:13:31;93816.63;;;4.62;82.84
61345;BME280;47216;42.656;23.232;2022-12-24T09:15:57;93816.00;;;4.67;82.43
61345;BME280;47216;42.656;23.232;2022-12-24T09:18:25;93818.25;;;4.82;82.19
61345;BME280;47216;42.656;23.232;2022-12-24T09:20:57;93807.06;;;4.88;82.42
61345;BME280;47216;42.656;23.232;2022-12-24T09:23:23;93802.13;;;5.05;81.99
61345;BME280;47216;42.656;23.232;2022-12-24T09:25:50;93802.00;;;5.18;81.70
61345;BME280;47216;42.656;23.232;2022-12-24T09:28:16;93804.00;;;5.16;81.29
61345;BME280;47216;42.656;23.232;2022-12-24T09:30:43;93803.50;;;5.26;80.52
61345;BME280;47216;42.656;23.232;2022-12-24T09:33:09;93802.72;;;5.25;80.53
61345;BME280;47216;42.656;23.232;2022-12-24T09:35:37;93803.31;;;5.28;80.16
61345;BME280;47216;42.656;23.232;2022-12-24T09:38:04;93808.53;;;5.39;80.04
61345;BME280;47216;42.656;23.232;2022-12-24T09:40:31;93804.66;;;5.30;80.51
61345;BME280;47216;42.656;23.232;2022-12-24T09:43:00;93794.31;;;5.30;81.07
61345;BME280;47216;42.656;23.232;2022-12-24T09:45:30;93800.41;;;5.54;81.06
61345;BME280;47216;42.656;23.232;2022-12-24T09:47:58;93792.00;;;5.59;80.55
61345;BME280;47216;42.656;23.232;2022-12-24T09:50:31;93785.84;;;5.60;80.51
61345;BME280;47216;42.656;23.232;2022-12-24T09:53:01;93794.75;;;5.64;80.30
61345;BME280;47216;42.656;23.232;2022-12-24T09:55:29;93789.63;;;5.76;79.12
61345;BME280;47216;42.656;23.232;2022-12-24T09:57:58;93788.16;;;5.80;78.74
61345;BME280;47216;42.656;23.232;2022-12-24T10:00:26;93773.56;;;5.85;78.45
61345;BME280;47216;42.656;23.232;2022-12-24T10:02:53;93781.19;;;5.99;78.41
61345;BME280;47216;42.656;23.232;2022-12-24T10:05:22;93791.09;;;6.02;78.31
61345;BME280;47216;42.656;23.232;2022-12-24T10:07:53;93787.06;;;6.06;77.97
61345;BME280;47216;42.656;23.232;2022-12-24T10:10:26;93788.19;;;6.10;77.55
61345;BME280;47216;42.656;23.232;2022-12-24T10:12:57;93788.44;;;6.20;76.76
61345;BME280;47216;42.656;23.232;2022-12-24T10:15:29;93791.59;;;6.22;76.40
61345;BME280;47216;42.656;23.232;2022-12-24T10:18:01;93788.44;;;6.20;76.34
61345;BME280;47216;42.656;23.232;2022-12-24T10:20:32;93788.44;;;6.20;76.31
61345;BME280;47216;42.656;23.232;2022-12-24T10:23:04;93792.06;;;6.19;76.16
61345;BME280;47216;42.656;23.232;2022-12-24T10:25:35;93788.53;;;6.14;76.57
61345;BME280;47216;42.656;23.232;2022-12-24T10:28:04;93798.44;;;6.17;76.99
61345;BME280;47216;42.656;23.232;2022-12-24T10:30:37;93789.81;;;6.23;76.83
61345;BME280;47216;42.656;23.232;2022-12-24T10:33:08;93786.66;;;6.32;76.51
61345;BME280;47216;42.656;23.232;2022-12-24T10:35:41;93785.97;;;6.25;76.17
61345;BME280;47216;42.656;23.232;2022-12-24T10:38:10;93780.78;;;6.25;76.80
61345;BME280;47216;42.656;23.232;2022-12-24T10:40:38;93777.53;;;6.30;76.53
61345;BME280;47216;42.656;23.232;2022-12-24T10:43:08;93775.75;;;6.42;76.56
61345;BME280;47216;42.656;23.232;2022-12-24T10:45:39;93777.47;;;6.48;76.14
61345;BME280;47216;42.656;23.232;2022-12-24T10:48:08;93776.09;;;6.46;75.59
61345;BME280;47216;42.656;23.232;2022-12-24T10:50:38;93775.88;;;6.36;75.99
61345;BME280;47216;42.656;23.232;2022-12-24T10:53:11;93783.06;;;6.34;75.79
61345;BME280;47216;42.656;23.232;2022-12-24T10:55:40;93775.53;;;6.44;75.67
61345;BME280;47216;42.656;23.232;2022-12-24T10:58:11;93774.41;;;6.40;75.96
61345;BME280;47216;42.656;23.232;2022-12-24T11:00:38;93776.78;;;6.41;75.72
61345;BME280;47216;42.656;23.232;2022-12-24T11:03:07;93789.94;;;6.40;75.82
61345;BME280;47216;42.656;23.232;2022-12-24T11:05:34;93791.53;;;6.41;74.90
61345;BME280;47216;42.656;23.232;2022-12-24T11:08:01;93790.72;;;6.28;75.50
61345;BME280;47216;42.656;23.232;2022-12-24T11:10:28;93788.56;;;6.25;75.94
61345;BME280;47216;42.656;23.232;2022-12-24T11:12:56;93794.25;;;6.46;76.25
61345;BME280;47216;42.656;23.232;2022-12-24T11:15:23;93780.50;;;6.45;75.33
61345;BME280;47216;42.656;23.232;2022-12-24T11:17:52;93781.28;;;6.46;75.86
61345;BME280;47216;42.656;23.232;2022-12-24T11:20:20;93770.34;;;6.44;75.35
61345;BME280;47216;42.656;23.232;2022-12-24T11:22:49;93776.88;;;6.46;75.48
61345;BME280;47216;42.656;23.232;2022-12-24T11:25:17;93775.34;;;6.69;74.21
61345;BME280;47216;42.656;23.232;2022-12-24T11:27:45;93774.09;;;6.71;73.90
61345;BME280;47216;42.656;23.232;2022-12-24T11:30:26;93777.56;;;6.65;74.00
61345;BME280;47216;42.656;23.232;2022-12-24T11:35:38;93781.56;;;6.68;73.98
61345;BME280;47216;42.656;23.232;2022-12-24T11:38:09;93785.81;;;6.86;73.15
61345;BME280;47216;42.656;23.232;2022-12-24T11:40:37;93782.22;;;6.87;72.70
61345;BME280;47216;42.656;23.232;2022-12-24T11:43:05;93779.75;;;6.92;73.40
61345;BME280;47216;42.656;23.232;2022-12-24T11:45:33;93782.31;;;7.04;73.20
61345;BME280;47216;42.656;23.232;2022-12-24T11:48:00;93773.75;;;7.03;72.97
61345;BME280;47216;42.656;23.232;2022-12-24T11:50:27;93780.97;;;7.01;73.52
61345;BME280;47216;42.656;23.232;2022-12-24T11:52:56;93777.13;;;7.04;73.86
61345;BME280;47216;42.656;23.232;2022-12-24T11:55:28;93779.94;;;7.02;73.87
61345;BME280;47216;42.656;23.232;2022-12-24T11:57:59;93782.00;;;7.00;72.97
61345;BME280;47216;42.656;23.232;2022-12-24T12:00:28;93774.34;;;7.05;73.41
61345;BME280;47216;42.656;23.232;2022-12-24T12:02:58;93772.59;;;7.23;72.92
61345;BME280;47216;42.656;23.232;2022-12-24T12:05:26;93761.78;;;7.38;73.09
61345;BME280;47216;42.656;23.232;2022-12-24T12:07:56;93766.50;;;7.29;72.52
61345;BME280;47216;42.656;23.232;2022-12-24T12:10:24;93767.75;;;7.38;72.52
61345;BME280;47216;42.656;23.232;2022-12-24T12:12:55;93758.00;;;7.45;72.90
61345;BME280;47216;42.656;23.232;2022-12-24T12:15:23;93760.72;;;7.50;72.00
61345;BME280;47216;42.656;23.232;2022-12-24T12:17:51;93754.34;;;7.70;72.30
61345;BME280;47216;42.656;23.232;2022-12-24T12:20:21;93752.66;;;7.92;70.62
61345;BME280;47216;42.656;23.232;2022-12-24T12:22:50;93753.00;;;8.13;70.28
61345;BME280;47216;42.656;23.232;2022-12-24T12:25:20;93750.63;;;8.40;68.83
61345;BME280;47216;42.656;23.232;2022-12-24T12:27:48;93757.22;;;8.81;66.75
61345;BME280;47216;42.656;23.232;2022-12-24T12:30:17;93751.38;;;9.08;63.76
61345;BME280;47216;42.656;23.232;2022-12-24T12:32:47;93750.00;;;9.22;63.68
61345;BME280;47216;42.656;23.232;2022-12-24T12:35:18;93755.19;;;9.44;63.41
61345;BME280;47216;42.656;23.232;2022-12-24T12:37:50;93753.78;;;9.59;62.73
61345;BME280;47216;42.656;23.232;2022-12-24T12:40:19;93747.03;;;9.80;61.08
61345;BME280;47216;42.656;23.232;2022-12-24T12:42:48;93761.09;;;9.84;60.43
61345;BME280;47216;42.656;23.232;2022-12-24T12:45:35;93763.03;;;9.94;60.06
61345;BME280;47216;42.656;23.232;2022-12-24T12:48:11;93763.88;;;9.99;59.43
61345;BME280;47216;42.656;23.232;2022-12-24T12:50:39;93775.19;;;10.10;59.17
61345;BME280;47216;42.656;23.232;2022-12-24T12:53:18;93774.38;;;10.09;60.19
61345;BME280;47216;42.656;23.232;2022-12-24T12:55:49;93776.50;;;10.13;59.94
61345;BME280;47216;42.656;23.232;2022-12-24T12:58:18;93781.19;;;10.10;60.33
61345;BME280;47216;42.656;23.232;2022-12-24T13:00:46;93782.75;;;10.12;60.74
61345;BME280;47216;42.656;23.232;2022-12-24T13:03:23;93789.22;;;10.09;60.87
61345;BME280;47216;42.656;23.232;2022-12-24T13:08:56;93794.53;;;9.92;61.31
61345;BME280;47216;42.656;23.232;2022-12-24T13:11:31;93788.22;;;9.88;61.69
61345;BME280;47216;42.656;23.232;2022-12-24T13:19:37;93802.47;;;9.80;61.82
61345;BME280;47216;42.656;23.232;2022-12-24T13:22:12;93809.56;;;9.85;61.96